sensor_id;sensor_type;location;lat;lon;timestamp;temperature;humidity
44111;DHT22;29774;52.664;5.074;2023-05-08T00:00:29;13.10;87.40
44111;DHT22;29774;52.664;5.074;2023-05-08T00:02:54;13.10;87.50
44111;DHT22;29774;52.664;5.074;2023-05-08T00:05:20;13.10;87.80
44111;DHT22;29774;52.664;5.074;2023-05-08T00:07:46;13.10;88.10
44111;DHT22;29774;52.664;5.074;2023-05-08T00:10:11;13.20;88.30
44111;DHT22;29774;52.664;5.074;2023-05-08T00:12:37;13.20;88.40
44111;DHT22;29774;52.664;5.074;2023-05-08T00:15:03;13.20;88.60
44111;DHT22;29774;52.664;5.074;2023-05-08T00:17:29;13.10;88.30
44111;DHT22;29774;52.664;5.074;2023-05-08T00:19:55;13.00;88.00
44111;DHT22;29774;52.664;5.074;2023-05-08T00:22:21;12.90;87.90
44111;DHT22;29774;52.664;5.074;2023-05-08T00:24:46;12.90;87.80
44111;DHT22;29774;52.664;5.074;2023-05-08T00:27:12;12.90;87.90
44111;DHT22;29774;52.664;5.074;2023-05-08T00:29:37;12.90;87.80
44111;DHT22;29774;52.664;5.074;2023-05-08T00:32:05;12.80;87.50
44111;DHT22;29774;52.664;5.074;2023-05-08T00:34:31;12.70;87.40
44111;DHT22;29774;52.664;5.074;2023-05-08T00:36:56;12.70;87.30
44111;DHT22;29774;52.664;5.074;2023-05-08T00:39:22;12.60;87.30
44111;DHT22;29774;52.664;5.074;2023-05-08T00:41:48;12.60;87.40
44111;DHT22;29774;52.664;5.074;2023-05-08T00:44:13;12.70;87.90
44111;DHT22;29774;52.664;5.074;2023-05-08T00:46:40;12.70;88.00
44111;DHT22;29774;52.664;5.074;2023-05-08T00:49:06;12.70;88.10
44111;DHT22;29774;52.664;5.074;2023-05-08T00:51:34;12.70;88.30
44111;DHT22;29774;52.664;5.074;2023-05-08T00:54:00;12.80;88.50
44111;DHT22;29774;52.664;5.074;2023-05-08T00:56:27;12.80;88.70
44111;DHT22;29774;52.664;5.074;2023-05-08T00:58:54;12.80;88.90
44111;DHT22;29774;52.664;5.074;2023-05-08T01:01:19;12.80;88.80
44111;DHT22;29774;52.664;5.074;2023-05-08T01:03:45;12.80;88.90
44111;DHT22;29774;52.664;5.074;2023-05-08T01:06:11;12.70;88.70
44111;DHT22;29774;52.664;5.074;2023-05-08T01:08:37;12.60;88.40
44111;DHT22;29774;52.664;5.074;2023-05-08T01:16:42;12.50;88.20
44111;DHT22;29774;52.664;5.074;2023-05-08T01:21:55;12.60;88.50
44111;DHT22;29774;52.664;5.074;2023-05-08T01:33:34;12.40;88.10
44111;DHT22;29774;52.664;5.074;2023-05-08T01:39:19;12.30;87.80
44111;DHT22;29774;52.664;5.074;2023-05-08T01:41:53;12.20;87.70
44111;DHT22;29774;52.664;5.074;2023-05-08T01:44:23;12.20;87.60
44111;DHT22;29774;52.664;5.074;2023-05-08T01:46:53;12.30;87.90
44111;DHT22;29774;52.664;5.074;2023-05-08T01:49:25;12.30;88.30
44111;DHT22;29774;52.664;5.074;2023-05-08T01:52:02;12.40;88.70
44111;DHT22;29774;52.664;5.074;2023-05-08T01:54:33;12.40;88.80
44111;DHT22;29774;52.664;5.074;2023-05-08T01:57:00;12.40;88.90
44111;DHT22;29774;52.664;5.074;2023-05-08T01:59:29;12.30;88.80
44111;DHT22;29774;52.664;5.074;2023-05-08T02:01:57;12.30;88.80
44111;DHT22;29774;52.664;5.074;2023-05-08T02:04:26;12.20;88.70
44111;DHT22;29774;52.664;5.074;2023-05-08T02:06:53;12.20;88.60
44111;DHT22;29774;52.664;5.074;2023-05-08T02:09:21;12.20;88.50
44111;DHT22;29774;52.664;5.074;2023-05-08T02:11:48;12.10;88.30
44111;DHT22;29774;52.664;5.074;2023-05-08T02:14:17;12.10;88.30
44111;DHT22;29774;52.664;5.074;2023-05-08T02:16:44;12.10;88.30
44111;DHT22;29774;52.664;5.074;2023-05-08T02:19:13;12.10;88.30
44111;DHT22;29774;52.664;5.074;2023-05-08T02:21:40;12.00;88.20
44111;DHT22;29774;52.664;5.074;2023-05-08T02:24:08;12.00;88.10
44111;DHT22;29774;52.664;5.074;2023-05-08T02:26:35;11.90;88.00
44111;DHT22;29774;52.664;5.074;2023-05-08T02:29:02;11.90;88.00
44111;DHT22;29774;52.664;5.074;2023-05-08T02:31:28;11.90;88.00
44111;DHT22;29774;52.664;5.074;2023-05-08T02:33:55;11.80;88.00
44111;DHT22;29774;52.664;5.074;2023-05-08T02:36:22;11.80;88.00
44111;DHT22;29774;52.664;5.074;2023-05-08T02:38:50;11.80;88.00
44111;DHT22;29774;52.664;5.074;2023-05-08T02:41:19;11.80;88.10
44111;DHT22;29774;52.664;5.074;2023-05-08T02:43:47;11.90;88.20
44111;DHT22;29774;52.664;5.074;2023-05-08T02:46:17;11.90;88.40
44111;DHT22;29774;52.664;5.074;2023-05-08T02:49:00;11.80;88.50
44111;DHT22;29774;52.664;5.074;2023-05-08T03:00:22;11.80;88.60
44111;DHT22;29774;52.664;5.074;2023-05-08T03:03:24;11.80;88.50
44111;DHT22;29774;52.664;5.074;2023-05-08T03:05:53;11.80;88.60
44111;DHT22;29774;52.664;5.074;2023-05-08T03:08:31;11.90;88.90
44111;DHT22;29774;52.664;5.074;2023-05-08T03:11:01;12.00;89.10
44111;DHT22;29774;52.664;5.074;2023-05-08T03:13:31;12.00;89.30
44111;DHT22;29774;52.664;5.074;2023-05-08T03:16:01;12.00;89.30
44111;DHT22;29774;52.664;5.074;2023-05-08T03:18:34;11.90;89.10
44111;DHT22;29774;52.664;5.074;2023-05-08T03:21:00;11.70;88.70
44111;DHT22;29774;52.664;5.074;2023-05-08T03:23:28;11.80;88.60
44111;DHT22;29774;52.664;5.074;2023-05-08T03:25:56;11.70;88.60
44111;DHT22;29774;52.664;5.074;2023-05-08T03:28:23;11.70;88.40
44111;DHT22;29774;52.664;5.074;2023-05-08T03:30:50;11.60;88.20
44111;DHT22;29774;52.664;5.074;2023-05-08T03:33:16;11.50;88.10
44111;DHT22;29774;52.664;5.074;2023-05-08T03:35:43;11.60;88.10
44111;DHT22;29774;52.664;5.074;2023-05-08T03:38:09;11.50;88.00
44111;DHT22;29774;52.664;5.074;2023-05-08T03:40:36;11.50;87.90
44111;DHT22;29774;52.664;5.074;2023-05-08T03:43:07;11.50;88.10
44111;DHT22;29774;52.664;5.074;2023-05-08T03:45:38;11.50;88.20
44111;DHT22;29774;52.664;5.074;2023-05-08T03:48:07;11.50;88.10
44111;DHT22;29774;52.664;5.074;2023-05-08T03:50:35;11.40;88.00
44111;DHT22;29774;52.664;5.074;2023-05-08T03:53:01;11.40;88.10
44111;DHT22;29774;52.664;5.074;2023-05-08T03:55:28;11.50;88.40
44111;DHT22;29774;52.664;5.074;2023-05-08T03:58:03;11.60;88.80
44111;DHT22;29774;52.664;5.074;2023-05-08T04:06:23;11.30;88.30
44111;DHT22;29774;52.664;5.074;2023-05-08T04:09:19;11.40;88.30
44111;DHT22;29774;52.664;5.074;2023-05-08T04:15:00;11.30;88.00
44111;DHT22;29774;52.664;5.074;2023-05-08T04:17:27;11.30;88.10
44111;DHT22;29774;52.664;5.074;2023-05-08T04:20:01;11.40;88.40
44111;DHT22;29774;52.664;5.074;2023-05-08T04:22:28;11.40;88.50
44111;DHT22;29774;52.664;5.074;2023-05-08T04:24:57;11.40;88.50
44111;DHT22;29774;52.664;5.074;2023-05-08T04:27:24;11.40;88.70
44111;DHT22;29774;52.664;5.074;2023-05-08T04:29:50;11.40;88.80
44111;DHT22;29774;52.664;5.074;2023-05-08T04:32:16;11.50;89.00
44111;DHT22;29774;52.664;5.074;2023-05-08T04:34:41;11.60;89.20
44111;DHT22;29774;52.664;5.074;2023-05-08T04:37:07;11.70;89.50
44111;DHT22;29774;52.664;5.074;2023-05-08T04:39:33;11.70;89.60
44111;DHT22;29774;52.664;5.074;2023-05-08T04:41:58;11.80;89.80
44111;DHT22;29774;52.664;5.074;2023-05-08T04:44:28;11.90;89.90
44111;DHT22;29774;52.664;5.074;2023-05-08T04:46:54;11.90;90.10
44111;DHT22;29774;52.664;5.074;2023-05-08T04:49:19;12.00;90.30
44111;DHT22;29774;52.664;5.074;2023-05-08T04:51:45;12.10;90.50
44111;DHT22;29774;52.664;5.074;2023-05-08T04:54:11;12.20;90.70
44111;DHT22;29774;52.664;5.074;2023-05-08T04:56:36;12.30;90.90
44111;DHT22;29774;52.664;5.074;2023-05-08T04:59:02;12.40;91.10
44111;DHT22;29774;52.664;5.074;2023-05-08T05:01:27;12.50;91.30
44111;DHT22;29774;52.664;5.074;2023-05-08T05:03:53;12.60;91.40
44111;DHT22;29774;52.664;5.074;2023-05-08T05:06:18;12.70;91.60
44111;DHT22;29774;52.664;5.074;2023-05-08T05:08:44;12.80;91.70
44111;DHT22;29774;52.664;5.074;2023-05-08T05:11:10;12.90;91.80
44111;DHT22;29774;52.664;5.074;2023-05-08T05:13:35;13.00;91.90
44111;DHT22;29774;52.664;5.074;2023-05-08T05:16:01;13.10;92.00
44111;DHT22;29774;52.664;5.074;2023-05-08T05:18:27;13.10;92.10
44111;DHT22;29774;52.664;5.074;2023-05-08T05:20:52;13.20;92.20
44111;DHT22;29774;52.664;5.074;2023-05-08T05:23:18;13.30;92.30
44111;DHT22;29774;52.664;5.074;2023-05-08T05:25:43;13.30;92.30
44111;DHT22;29774;52.664;5.074;2023-05-08T05:28:09;13.40;92.40
44111;DHT22;29774;52.664;5.074;2023-05-08T05:30:35;13.40;92.40
44111;DHT22;29774;52.664;5.074;2023-05-08T05:33:01;13.50;92.50
44111;DHT22;29774;52.664;5.074;2023-05-08T05:35:26;13.50;92.50
44111;DHT22;29774;52.664;5.074;2023-05-08T05:37:52;13.60;92.50
44111;DHT22;29774;52.664;5.074;2023-05-08T05:40:17;13.60;92.50
44111;DHT22;29774;52.664;5.074;2023-05-08T05:42:47;13.60;92.50
44111;DHT22;29774;52.664;5.074;2023-05-08T05:45:14;13.70;92.50
44111;DHT22;29774;52.664;5.074;2023-05-08T05:47:44;13.70;92.50
44111;DHT22;29774;52.664;5.074;2023-05-08T05:50:10;13.70;92.40
44111;DHT22;29774;52.664;5.074;2023-05-08T05:52:36;13.70;92.40
44111;DHT22;29774;52.664;5.074;2023-05-08T05:55:01;13.70;92.40
44111;DHT22;29774;52.664;5.074;2023-05-08T05:57:27;13.70;92.30
44111;DHT22;29774;52.664;5.074;2023-05-08T05:59:53;13.80;92.30
44111;DHT22;29774;52.664;5.074;2023-05-08T06:02:18;13.90;92.30
44111;DHT22;29774;52.664;5.074;2023-05-08T06:04:44;14.00;92.30
44111;DHT22;29774;52.664;5.074;2023-05-08T06:07:10;13.90;92.20
44111;DHT22;29774;52.664;5.074;2023-05-08T06:09:35;14.00;92.20
44111;DHT22;29774;52.664;5.074;2023-05-08T06:12:01;14.10;92.30
44111;DHT22;29774;52.664;5.074;2023-05-08T06:14:27;14.20;92.20
44111;DHT22;29774;52.664;5.074;2023-05-08T06:16:52;14.00;92.10
44111;DHT22;29774;52.664;5.074;2023-05-08T06:19:18;14.00;91.90
44111;DHT22;29774;52.664;5.074;2023-05-08T06:21:43;14.10;91.90
44111;DHT22;29774;52.664;5.074;2023-05-08T06:24:09;14.10;91.80
44111;DHT22;29774;52.664;5.074;2023-05-08T06:26:34;14.20;91.70
44111;DHT22;29774;52.664;5.074;2023-05-08T06:29:00;14.30;91.70
44111;DHT22;29774;52.664;5.074;2023-05-08T06:31:26;14.30;91.70
44111;DHT22;29774;52.664;5.074;2023-05-08T06:33:51;14.40;91.80
44111;DHT22;29774;52.664;5.074;2023-05-08T06:36:17;14.60;91.80
44111;DHT22;29774;52.664;5.074;2023-05-08T06:38:42;14.70;91.90
44111;DHT22;29774;52.664;5.074;2023-05-08T06:41:08;14.70;92.00
44111;DHT22;29774;52.664;5.074;2023-05-08T06:43:33;14.80;91.90
44111;DHT22;29774;52.664;5.074;2023-05-08T06:45:59;14.80;91.80
44111;DHT22;29774;52.664;5.074;2023-05-08T06:48:25;14.80;91.60
44111;DHT22;29774;52.664;5.074;2023-05-08T06:50:53;14.90;91.40
44111;DHT22;29774;52.664;5.074;2023-05-08T06:53:19;15.00;91.40
44111;DHT22;29774;52.664;5.074;2023-05-08T06:55:44;15.20;91.20
44111;DHT22;29774;52.664;5.074;2023-05-08T06:58:10;15.20;90.70
44111;DHT22;29774;52.664;5.074;2023-05-08T07:00:35;15.30;90.10
44111;DHT22;29774;52.664;5.074;2023-05-08T07:03:01;15.40;88.80
44111;DHT22;29774;52.664;5.074;2023-05-08T07:05:27;15.60;87.90
44111;DHT22;29774;52.664;5.074;2023-05-08T07:07:52;15.70;86.60
44111;DHT22;29774;52.664;5.074;2023-05-08T07:10:19;16.00;86.10
44111;DHT22;29774;52.664;5.074;2023-05-08T07:12:47;16.10;85.10
44111;DHT22;29774;52.664;5.074;2023-05-08T07:15:13;16.30;84.10
44111;DHT22;29774;52.664;5.074;2023-05-08T07:17:39;16.40;84.10
44111;DHT22;29774;52.664;5.074;2023-05-08T07:20:06;16.50;83.50
44111;DHT22;29774;52.664;5.074;2023-05-08T07:22:32;16.60;83.20
44111;DHT22;29774;52.664;5.074;2023-05-08T07:24:58;16.60;83.00
44111;DHT22;29774;52.664;5.074;2023-05-08T07:27:24;16.70;82.80
44111;DHT22;29774;52.664;5.074;2023-05-08T07:29:49;16.80;82.70
44111;DHT22;29774;52.664;5.074;2023-05-08T07:32:15;16.80;82.40
44111;DHT22;29774;52.664;5.074;2023-05-08T07:34:40;16.70;81.90
44111;DHT22;29774;52.664;5.074;2023-05-08T07:37:06;16.80;82.00
44111;DHT22;29774;52.664;5.074;2023-05-08T07:39:33;16.90;82.40
44111;DHT22;29774;52.664;5.074;2023-05-08T07:41:58;17.00;82.10
44111;DHT22;29774;52.664;5.074;2023-05-08T07:44:24;17.10;81.90
44111;DHT22;29774;52.664;5.074;2023-05-08T07:46:50;17.20;81.50
44111;DHT22;29774;52.664;5.074;2023-05-08T07:49:17;17.30;80.50
44111;DHT22;29774;52.664;5.074;2023-05-08T07:51:42;17.40;80.80
44111;DHT22;29774;52.664;5.074;2023-05-08T07:54:08;17.50;80.10
44111;DHT22;29774;52.664;5.074;2023-05-08T07:56:33;17.50;79.70
44111;DHT22;29774;52.664;5.074;2023-05-08T07:58:59;17.70;79.40
44111;DHT22;29774;52.664;5.074;2023-05-08T08:01:24;17.70;78.90
44111;DHT22;29774;52.664;5.074;2023-05-08T08:03:50;17.70;79.10
44111;DHT22;29774;52.664;5.074;2023-05-08T08:06:16;17.80;79.10
44111;DHT22;29774;52.664;5.074;2023-05-08T08:08:42;17.70;79.10
44111;DHT22;29774;52.664;5.074;2023-05-08T08:11:08;17.80;78.50
44111;DHT22;29774;52.664;5.074;2023-05-08T08:13:34;17.80;78.60
44111;DHT22;29774;52.664;5.074;2023-05-08T08:16:00;17.90;78.40
44111;DHT22;29774;52.664;5.074;2023-05-08T08:18:25;18.00;78.10
44111;DHT22;29774;52.664;5.074;2023-05-08T08:20:51;18.00;77.60
44111;DHT22;29774;52.664;5.074;2023-05-08T08:23:17;18.10;77.60
44111;DHT22;29774;52.664;5.074;2023-05-08T08:25:43;18.20;77.60
44111;DHT22;29774;52.664;5.074;2023-05-08T08:28:08;18.20;77.10
44111;DHT22;29774;52.664;5.074;2023-05-08T08:30:34;18.20;77.00
44111;DHT22;29774;52.664;5.074;2023-05-08T08:32:59;18.20;76.90
44111;DHT22;29774;52.664;5.074;2023-05-08T08:35:27;18.20;76.90
44111;DHT22;29774;52.664;5.074;2023-05-08T08:37:57;18.20;77.00
44111;DHT22;29774;52.664;5.074;2023-05-08T08:40:23;18.20;76.90
44111;DHT22;29774;52.664;5.074;2023-05-08T08:42:48;18.20;76.60
44111;DHT22;29774;52.664;5.074;2023-05-08T08:45:14;18.10;76.80
44111;DHT22;29774;52.664;5.074;2023-05-08T08:47:43;18.00;77.40
44111;DHT22;29774;52.664;5.074;2023-05-08T08:50:09;18.10;77.70
44111;DHT22;29774;52.664;5.074;2023-05-08T08:53:11;18.20;77.80
44111;DHT22;29774;52.664;5.074;2023-05-08T08:55:43;18.10;77.60
44111;DHT22;29774;52.664;5.074;2023-05-08T09:00:44;18.20;78.20
44111;DHT22;29774;52.664;5.074;2023-05-08T09:03:10;18.20;78.30
44111;DHT22;29774;52.664;5.074;2023-05-08T09:05:36;18.20;78.20
44111;DHT22;29774;52.664;5.074;2023-05-08T09:08:04;18.30;78.10
44111;DHT22;29774;52.664;5.074;2023-05-08T09:10:29;18.30;78.00
44111;DHT22;29774;52.664;5.074;2023-05-08T09:12:55;18.30;78.10
44111;DHT22;29774;52.664;5.074;2023-05-08T09:15:21;18.30;77.10
44111;DHT22;29774;52.664;5.074;2023-05-08T09:17:46;18.40;77.80
44111;DHT22;29774;52.664;5.074;2023-05-08T09:20:13;18.50;78.10
44111;DHT22;29774;52.664;5.074;2023-05-08T09:22:41;18.60;77.40
44111;DHT22;29774;52.664;5.074;2023-05-08T09:25:07;18.70;77.00
44111;DHT22;29774;52.664;5.074;2023-05-08T09:27:33;18.70;76.90
44111;DHT22;29774;52.664;5.074;2023-05-08T09:30:06;18.90;76.90
44111;DHT22;29774;52.664;5.074;2023-05-08T09:32:33;19.10;76.30
44111;DHT22;29774;52.664;5.074;2023-05-08T09:35:00;19.10;76.10
44111;DHT22;29774;52.664;5.074;2023-05-08T09:37:26;19.00;74.70
44111;DHT22;29774;52.664;5.074;2023-05-08T09:39:53;19.20;75.90
44111;DHT22;29774;52.664;5.074;2023-05-08T09:42:19;19.20;75.30
44111;DHT22;29774;52.664;5.074;2023-05-08T09:44:49;19.20;75.00
44111;DHT22;29774;52.664;5.074;2023-05-08T09:47:18;19.00;73.30
44111;DHT22;29774;52.664;5.074;2023-05-08T09:52:22;19.10;74.40
44111;DHT22;29774;52.664;5.074;2023-05-08T09:54:58;19.20;74.50
44111;DHT22;29774;52.664;5.074;2023-05-08T09:57:28;19.40;74.60
44111;DHT22;29774;52.664;5.074;2023-05-08T10:00:20;19.60;74.60
44111;DHT22;29774;52.664;5.074;2023-05-08T10:02:57;19.50;73.30
44111;DHT22;29774;52.664;5.074;2023-05-08T10:05:33;19.40;72.10
44111;DHT22;29774;52.664;5.074;2023-05-08T10:08:21;19.70;74.60
44111;DHT22;29774;52.664;5.074;2023-05-08T10:10:47;20.00;73.30
44111;DHT22;29774;52.664;5.074;2023-05-08T10:13:13;20.20;72.90
44111;DHT22;29774;52.664;5.074;2023-05-08T10:15:42;20.40;72.30
44111;DHT22;29774;52.664;5.074;2023-05-08T10:18:08;20.40;71.80
44111;DHT22;29774;52.664;5.074;2023-05-08T10:20:41;20.40;71.30
44111;DHT22;29774;52.664;5.074;2023-05-08T10:23:13;20.70;71.50
44111;DHT22;29774;52.664;5.074;2023-05-08T10:25:44;20.70;71.10
44111;DHT22;29774;52.664;5.074;2023-05-08T10:29:12;20.70;70.90
44111;DHT22;29774;52.664;5.074;2023-05-08T10:31:21;20.70;70.80
44111;DHT22;29774;52.664;5.074;2023-05-08T10:33:49;21.00;69.70
44111;DHT22;29774;52.664;5.074;2023-05-08T10:36:16;20.80;70.00
44111;DHT22;29774;52.664;5.074;2023-05-08T10:38:42;21.10;69.30
44111;DHT22;29774;52.664;5.074;2023-05-08T10:41:09;21.10;69.70
44111;DHT22;29774;52.664;5.074;2023-05-08T10:43:35;21.20;68.70
44111;DHT22;29774;52.664;5.074;2023-05-08T10:46:20;21.20;68.70
44111;DHT22;29774;52.664;5.074;2023-05-08T10:51:36;20.80;68.90
44111;DHT22;29774;52.664;5.074;2023-05-08T10:56:32;20.70;69.30
44111;DHT22;29774;52.664;5.074;2023-05-08T10:59:01;20.80;70.30
44111;DHT22;29774;52.664;5.074;2023-05-08T11:01:28;21.00;70.40
44111;DHT22;29774;52.664;5.074;2023-05-08T11:03:54;21.10;69.30
44111;DHT22;29774;52.664;5.074;2023-05-08T11:06:45;21.10;69.70
44111;DHT22;29774;52.664;5.074;2023-05-08T11:09:22;21.20;69.10
44111;DHT22;29774;52.664;5.074;2023-05-08T11:14:38;21.60;68.20
44111;DHT22;29774;52.664;5.074;2023-05-08T11:17:06;21.70;68.10
44111;DHT22;29774;52.664;5.074;2023-05-08T11:19:32;21.90;67.50
44111;DHT22;29774;52.664;5.074;2023-05-08T11:25:02;22.20;66.00
44111;DHT22;29774;52.664;5.074;2023-05-08T11:27:38;22.10;66.60
44111;DHT22;29774;52.664;5.074;2023-05-08T11:35:55;22.00;66.80
44111;DHT22;29774;52.664;5.074;2023-05-08T11:38:26;22.10;66.60
44111;DHT22;29774;52.664;5.074;2023-05-08T11:41:06;22.00;66.80
44111;DHT22;29774;52.664;5.074;2023-05-08T11:48:33;22.00;67.00
44111;DHT22;29774;52.664;5.074;2023-05-08T11:51:00;21.80;67.10
44111;DHT22;29774;52.664;5.074;2023-05-08T11:53:26;21.90;67.70
44111;DHT22;29774;52.664;5.074;2023-05-08T11:55:53;21.80;67.50
44111;DHT22;29774;52.664;5.074;2023-05-08T11:58:18;21.90;67.60
44111;DHT22;29774;52.664;5.074;2023-05-08T12:00:46;21.70;66.80
44111;DHT22;29774;52.664;5.074;2023-05-08T12:03:20;21.70;67.60
44111;DHT22;29774;52.664;5.074;2023-05-08T12:05:46;21.70;67.70
44111;DHT22;29774;52.664;5.074;2023-05-08T12:08:13;21.70;67.80
44111;DHT22;29774;52.664;5.074;2023-05-08T12:10:59;21.70;68.10
44111;DHT22;29774;52.664;5.074;2023-05-08T12:13:26;21.80;67.40
44111;DHT22;29774;52.664;5.074;2023-05-08T12:15:57;21.90;67.80
44111;DHT22;29774;52.664;5.074;2023-05-08T12:18:24;22.00;67.20
44111;DHT22;29774;52.664;5.074;2023-05-08T12:20:56;22.20;67.10
44111;DHT22;29774;52.664;5.074;2023-05-08T12:23:24;22.20;67.00
44111;DHT22;29774;52.664;5.074;2023-05-08T12:25:53;22.30;66.60
44111;DHT22;29774;52.664;5.074;2023-05-08T12:28:19;22.30;66.20
44111;DHT22;29774;52.664;5.074;2023-05-08T12:30:45;22.30;66.60
44111;DHT22;29774;52.664;5.074;2023-05-08T12:33:11;22.30;66.70
44111;DHT22;29774;52.664;5.074;2023-05-08T12:35:38;22.20;66.40
44111;DHT22;29774;52.664;5.074;2023-05-08T12:38:06;22.20;66.10
44111;DHT22;29774;52.664;5.074;2023-05-08T12:40:33;22.20;66.50
44111;DHT22;29774;52.664;5.074;2023-05-08T12:43:00;22.30;66.20
44111;DHT22;29774;52.664;5.074;2023-05-08T12:45:32;22.20;66.10
44111;DHT22;29774;52.664;5.074;2023-05-08T12:48:07;22.20;66.10
44111;DHT22;29774;52.664;5.074;2023-05-08T12:50:39;22.20;66.30
44111;DHT22;29774;52.664;5.074;2023-05-08T12:53:12;22.20;66.10
44111;DHT22;29774;52.664;5.074;2023-05-08T12:55:48;22.30;66.40
44111;DHT22;29774;52.664;5.074;2023-05-08T12:58:17;22.50;65.90
44111;DHT22;29774;52.664;5.074;2023-05-08T13:00:44;22.70;64.80
44111;DHT22;29774;52.664;5.074;2023-05-08T13:03:11;22.90;63.60
44111;DHT22;29774;52.664;5.074;2023-05-08T13:05:41;22.70;63.60
44111;DHT22;29774;52.664;5.074;2023-05-08T13:08:08;22.70;64.60
44111;DHT22;29774;52.664;5.074;2023-05-08T13:10:51;22.80;64.40
44111;DHT22;29774;52.664;5.074;2023-05-08T13:13:18;22.70;64.70
44111;DHT22;29774;52.664;5.074;2023-05-08T13:15:45;22.90;63.40
44111;DHT22;29774;52.664;5.074;2023-05-08T13:18:11;23.00;62.70
44111;DHT22;29774;52.664;5.074;2023-05-08T13:20:37;23.20;60.10
44111;DHT22;29774;52.664;5.074;2023-05-08T13:23:04;23.20;61.20
44111;DHT22;29774;52.664;5.074;2023-05-08T13:25:30;23.30;61.10
44111;DHT22;29774;52.664;5.074;2023-05-08T13:27:57;23.20;60.60
44111;DHT22;29774;52.664;5.074;2023-05-08T13:30:23;23.10;60.80
44111;DHT22;29774;52.664;5.074;2023-05-08T13:32:49;23.10;61.00
44111;DHT22;29774;52.664;5.074;2023-05-08T13:35:15;23.00;61.60
44111;DHT22;29774;52.664;5.074;2023-05-08T13:37:41;22.70;62.10
44111;DHT22;29774;52.664;5.074;2023-05-08T13:40:07;22.50;63.60
44111;DHT22;29774;52.664;5.074;2023-05-08T13:42:33;22.40;64.10
44111;DHT22;29774;52.664;5.074;2023-05-08T13:44:58;22.20;65.20
44111;DHT22;29774;52.664;5.074;2023-05-08T13:47:24;22.20;65.20
44111;DHT22;29774;52.664;5.074;2023-05-08T13:49:49;22.00;65.50
44111;DHT22;29774;52.664;5.074;2023-05-08T13:52:15;21.70;65.60
44111;DHT22;29774;52.664;5.074;2023-05-08T13:54:41;21.70;66.60
44111;DHT22;29774;52.664;5.074;2023-05-08T13:57:07;21.70;66.00
44111;DHT22;29774;52.664;5.074;2023-05-08T13:59:33;21.50;66.60
44111;DHT22;29774;52.664;5.074;2023-05-08T14:01:59;21.50;66.70
44111;DHT22;29774;52.664;5.074;2023-05-08T14:04:24;21.50;66.80
44111;DHT22;29774;52.664;5.074;2023-05-08T14:06:50;21.50;66.80
44111;DHT22;29774;52.664;5.074;2023-05-08T14:09:16;21.60;66.20
44111;DHT22;29774;52.664;5.074;2023-05-08T14:11:41;21.60;66.80
44111;DHT22;29774;52.664;5.074;2023-05-08T14:14:07;21.50;66.10
44111;DHT22;29774;52.664;5.074;2023-05-08T14:16:32;21.40;66.30
44111;DHT22;29774;52.664;5.074;2023-05-08T14:18:58;21.30;66.30
44111;DHT22;29774;52.664;5.074;2023-05-08T14:21:24;21.30;66.90
44111;DHT22;29774;52.664;5.074;2023-05-08T14:23:50;21.10;65.80
44111;DHT22;29774;52.664;5.074;2023-05-08T14:26:15;21.00;66.30
44111;DHT22;29774;52.664;5.074;2023-05-08T14:28:41;20.80;67.10
44111;DHT22;29774;52.664;5.074;2023-05-08T14:31:06;20.70;67.40
44111;DHT22;29774;52.664;5.074;2023-05-08T14:33:33;20.60;68.10
44111;DHT22;29774;52.664;5.074;2023-05-08T14:35:58;20.60;67.90
44111;DHT22;29774;52.664;5.074;2023-05-08T14:38:24;20.50;68.00
44111;DHT22;29774;52.664;5.074;2023-05-08T14:40:50;20.40;68.20
44111;DHT22;29774;52.664;5.074;2023-05-08T14:43:16;20.40;68.80
44111;DHT22;29774;52.664;5.074;2023-05-08T14:45:41;20.40;69.40
44111;DHT22;29774;52.664;5.074;2023-05-08T14:48:07;20.40;69.10
44111;DHT22;29774;52.664;5.074;2023-05-08T14:50:33;20.40;69.00
44111;DHT22;29774;52.664;5.074;2023-05-08T14:52:58;20.40;69.40
44111;DHT22;29774;52.664;5.074;2023-05-08T14:55:24;20.40;69.80
44111;DHT22;29774;52.664;5.074;2023-05-08T14:57:50;20.50;69.90
44111;DHT22;29774;52.664;5.074;2023-05-08T15:00:16;20.40;70.10
44111;DHT22;29774;52.664;5.074;2023-05-08T15:02:42;20.30;70.40
44111;DHT22;29774;52.664;5.074;2023-05-08T15:05:08;20.20;70.50
44111;DHT22;29774;52.664;5.074;2023-05-08T15:07:34;20.00;70.50
44111;DHT22;29774;52.664;5.074;2023-05-08T15:10:00;19.80;70.60
44111;DHT22;29774;52.664;5.074;2023-05-08T15:12:25;19.80;70.70
44111;DHT22;29774;52.664;5.074;2023-05-08T15:14:51;19.80;70.80
44111;DHT22;29774;52.664;5.074;2023-05-08T15:17:17;19.70;70.60
44111;DHT22;29774;52.664;5.074;2023-05-08T15:19:43;19.70;70.80
44111;DHT22;29774;52.664;5.074;2023-05-08T15:22:13;19.70;70.80
44111;DHT22;29774;52.664;5.074;2023-05-08T15:24:38;19.70;70.70
44111;DHT22;29774;52.664;5.074;2023-05-08T15:27:04;19.60;71.00
44111;DHT22;29774;52.664;5.074;2023-05-08T15:29:30;19.50;71.20
44111;DHT22;29774;52.664;5.074;2023-05-08T15:31:56;19.40;71.40
44111;DHT22;29774;52.664;5.074;2023-05-08T15:34:21;19.30;71.00
44111;DHT22;29774;52.664;5.074;2023-05-08T15:36:47;19.30;71.60
44111;DHT22;29774;52.664;5.074;2023-05-08T15:39:13;19.20;71.90
44111;DHT22;29774;52.664;5.074;2023-05-08T15:41:39;19.20;71.30
44111;DHT22;29774;52.664;5.074;2023-05-08T15:44:06;19.10;72.20
44111;DHT22;29774;52.664;5.074;2023-05-08T15:46:32;19.10;72.20
44111;DHT22;29774;52.664;5.074;2023-05-08T15:48:57;19.00;71.90
44111;DHT22;29774;52.664;5.074;2023-05-08T15:51:23;19.00;72.30
44111;DHT22;29774;52.664;5.074;2023-05-08T15:53:48;19.00;72.20
44111;DHT22;29774;52.664;5.074;2023-05-08T15:56:16;18.90;72.00
44111;DHT22;29774;52.664;5.074;2023-05-08T15:58:42;18.90;72.40
44111;DHT22;29774;52.664;5.074;2023-05-08T16:01:08;18.80;72.50
44111;DHT22;29774;52.664;5.074;2023-05-08T16:03:33;18.80;72.60
44111;DHT22;29774;52.664;5.074;2023-05-08T16:05:59;18.70;72.80
44111;DHT22;29774;52.664;5.074;2023-05-08T16:08:24;18.70;72.70
44111;DHT22;29774;52.664;5.074;2023-05-08T16:10:53;18.70;72.70
44111;DHT22;29774;52.664;5.074;2023-05-08T16:13:18;18.70;73.00
44111;DHT22;29774;52.664;5.074;2023-05-08T16:15:44;18.70;73.10
44111;DHT22;29774;52.664;5.074;2023-05-08T16:18:10;18.70;73.00
44111;DHT22;29774;52.664;5.074;2023-05-08T16:20:35;18.70;73.00
44111;DHT22;29774;52.664;5.074;2023-05-08T16:23:01;18.70;73.20
44111;DHT22;29774;52.664;5.074;2023-05-08T16:25:27;18.60;73.20
44111;DHT22;29774;52.664;5.074;2023-05-08T16:27:52;18.60;73.30
44111;DHT22;29774;52.664;5.074;2023-05-08T16:30:18;18.60;73.30
44111;DHT22;29774;52.664;5.074;2023-05-08T16:32:43;18.60;73.50
44111;DHT22;29774;52.664;5.074;2023-05-08T16:35:12;18.60;73.20
44111;DHT22;29774;52.664;5.074;2023-05-08T16:37:38;18.70;73.40